createdAt,value
2022-08-17T00:01:27.607Z,13.90
2022-08-17T00:04:01.078Z,13.30
2022-08-17T00:06:36.323Z,13.70
2022-08-17T00:09:10.534Z,13.70
2022-08-17T00:12:34.601Z,14.00
2022-08-17T00:14:49.166Z,13.50
2022-08-17T00:17:23.984Z,13.40
2022-08-17T00:19:57.920Z,14.10
2022-08-17T00:22:36.132Z,13.00
2022-08-17T00:25:17.324Z,12.90
2022-08-17T00:27:51.304Z,12.80
2022-08-17T00:30:25.487Z,13.60
2022-08-17T00:33:16.082Z,13.50
2022-08-17T00:35:54.110Z,13.70
2022-08-17T00:38:29.256Z,12.80
2022-08-17T00:41:08.178Z,14.50
2022-08-17T00:43:45.951Z,14.20
2022-08-17T00:46:26.945Z,14.40
2022-08-17T00:49:05.335Z,14.20
2022-08-17T00:51:55.848Z,13.60
2022-08-17T00:54:41.705Z,14.10
2022-08-17T00:57:28.861Z,13.60
2022-08-17T01:00:26.985Z,13.70
2022-08-17T01:03:06.878Z,13.80
2022-08-17T01:05:42.648Z,14.40
2022-08-17T01:08:20.140Z,14.90
2022-08-17T01:11:01.584Z,14.80
2022-08-17T01:13:46.558Z,16.90
2022-08-17T01:19:04.629Z,16.70
2022-08-17T01:21:46.098Z,17.10
2022-08-17T01:24:20.226Z,16.40
2022-08-17T01:26:53.914Z,17.80
2022-08-17T01:29:33.879Z,17.10
2022-08-17T01:32:09.850Z,17.50
2022-08-17T01:34:50.498Z,15.90
2022-08-17T01:37:43.045Z,14.70
2022-08-17T01:40:17.650Z,13.80
2022-08-17T01:43:12.795Z,12.90
2022-08-17T01:45:50.122Z,13.10
2022-08-17T01:48:43.614Z,13.20
2022-08-17T01:51:17.853Z,13.80
2022-08-17T01:53:58.802Z,14.00
2022-08-17T01:56:34.918Z,14.30
2022-08-17T01:59:08.690Z,14.40
2022-08-17T02:01:42.524Z,15.40
2022-08-17T02:04:16.395Z,15.50
2022-08-17T02:06:54.241Z,15.50
2022-08-17T02:09:31.172Z,15.50
2022-08-17T02:12:37.163Z,15.70
2022-08-17T02:15:00.701Z,15.80
2022-08-17T02:17:34.382Z,16.90
2022-08-17T02:20:09.534Z,16.30
2022-08-17T02:22:46.513Z,15.90
2022-08-17T02:25:22.334Z,15.50
2022-08-17T02:27:56.995Z,15.60
2022-08-17T02:30:59.579Z,15.70
2022-08-17T02:33:25.294Z,15.50
2022-08-17T02:36:19.069Z,16.20
2022-08-17T02:38:52.166Z,16.30
2022-08-17T02:41:25.222Z,15.70
2022-08-17T02:43:59.161Z,15.80
2022-08-17T02:46:32.967Z,17.00
2022-08-17T02:49:06.470Z,16.00
2022-08-17T02:51:39.368Z,15.70
2022-08-17T02:54:39.672Z,16.90
2022-08-17T02:57:07.065Z,16.00
2022-08-17T02:59:45.448Z,16.90
2022-08-17T03:02:23.356Z,18.10
2022-08-17T03:04:56.927Z,18.80
2022-08-17T03:07:32.562Z,18.50
2022-08-17T03:10:09.249Z,20.40
2022-08-17T03:12:44.292Z,19.40
2022-08-17T03:15:23.216Z,18.00
2022-08-17T03:17:58.033Z,17.80
2022-08-17T03:20:33.586Z,17.40
2022-08-17T03:23:07.699Z,17.30
2022-08-17T03:25:47.040Z,17.90
2022-08-17T03:28:20.378Z,17.70
2022-08-17T03:30:53.688Z,17.10
2022-08-17T03:33:26.998Z,16.50
2022-08-17T03:36:00.169Z,17.60
2022-08-17T03:38:39.304Z,15.10
2022-08-17T03:41:14.357Z,15.90
2022-08-17T03:43:47.473Z,14.60
2022-08-17T03:46:39.708Z,13.50
2022-08-17T03:49:32.027Z,13.40
2022-08-17T03:55:15.061Z,12.50
2022-08-17T03:57:49.330Z,14.60
2022-08-17T04:00:22.886Z,12.70
2022-08-17T04:02:56.513Z,13.60
2022-08-17T04:05:30.743Z,16.80
2022-08-17T04:08:08.314Z,15.30
2022-08-17T04:10:45.286Z,17.20
2022-08-17T04:13:25.009Z,16.60
2022-08-17T04:16:00.374Z,16.10
2022-08-17T04:18:33.666Z,14.60
2022-08-17T04:21:07.160Z,14.50
2022-08-17T04:23:39.929Z,15.40
2022-08-17T04:26:52.877Z,15.00
2022-08-17T04:29:09.875Z,16.10
2022-08-17T04:31:43.251Z,14.20
2022-08-17T04:34:16.254Z,16.20
2022-08-17T04:36:53.312Z,15.10
2022-08-17T04:39:26.652Z,16.00
2022-08-17T04:42:09.763Z,16.20
2022-08-17T04:44:42.845Z,17.70
2022-08-17T04:47:16.135Z,16.90
2022-08-17T04:49:48.898Z,15.30
2022-08-17T04:52:29.785Z,16.20
2022-08-17T04:55:18.628Z,15.70
2022-08-17T04:57:51.995Z,16.20
2022-08-17T05:00:26.602Z,16.40
2022-08-17T05:03:00.573Z,15.20
2022-08-17T05:05:36.956Z,15.40
2022-08-17T05:08:10.343Z,14.40
2022-08-17T05:10:45.579Z,14.20
2022-08-17T05:13:21.349Z,15.50
2022-08-17T05:15:59.493Z,14.90
2022-08-17T05:18:33.053Z,16.20
2022-08-17T05:21:07.068Z,15.00
2022-08-17T05:23:42.730Z,15.00
2022-08-17T05:26:26.190Z,14.20
2022-08-17T05:29:03.584Z,13.50
2022-08-17T05:31:37.315Z,13.90
2022-08-17T05:34:11.971Z,13.90
2022-08-17T05:36:45.651Z,13.80
2022-08-17T05:39:18.704Z,13.60
2022-08-17T05:41:52.195Z,13.00
2022-08-17T05:44:25.211Z,13.20
2022-08-17T05:47:01.584Z,12.90
2022-08-17T05:49:34.961Z,12.50
2022-08-17T05:52:55.602Z,13.20
2022-08-17T05:55:55.800Z,12.30
2022-08-17T05:58:58.922Z,12.90
2022-08-17T06:01:37.340Z,12.90
2022-08-17T06:04:35.777Z,12.70
2022-08-17T06:07:16.506Z,12.30
2022-08-17T06:10:12.771Z,11.70
2022-08-17T06:13:11.298Z,11.80
2022-08-17T06:16:28.235Z,10.30
2022-08-17T06:19:19.193Z,11.20
2022-08-17T06:21:54.619Z,10.20
2022-08-17T06:24:34.670Z,10.00
2022-08-17T06:27:42.306Z,10.50
2022-08-17T06:30:21.823Z,9.30
2022-08-17T06:33:00.143Z,9.90
2022-08-17T06:35:40.033Z,10.00
2022-08-17T06:38:38.351Z,10.90
2022-08-17T06:41:39.128Z,8.50
2022-08-17T06:44:50.194Z,8.00
2022-08-17T06:47:48.992Z,8.00
2022-08-17T06:50:40.712Z,8.00
2022-08-17T06:53:40.854Z,7.80
2022-08-17T06:56:16.284Z,7.60
2022-08-17T06:58:50.378Z,8.10
2022-08-17T07:01:31.725Z,8.70
2022-08-17T07:04:19.723Z,8.30
2022-08-17T07:07:01.550Z,7.50
2022-08-17T07:12:18.846Z,7.60
2022-08-17T07:15:15.346Z,7.70
2022-08-17T07:17:48.705Z,7.40
2022-08-17T07:20:23.777Z,6.60
2022-08-17T07:23:16.116Z,5.60
2022-08-17T07:25:49.563Z,6.70
2022-08-17T07:28:30.459Z,7.20
2022-08-17T07:31:05.834Z,7.80
2022-08-17T07:33:39.830Z,7.20
2022-08-17T07:36:35.809Z,7.00
2022-08-17T07:39:12.320Z,6.50
2022-08-17T07:41:59.383Z,6.50
2022-08-17T07:44:32.650Z,5.70
2022-08-17T07:47:25.638Z,6.40
2022-08-17T07:49:58.668Z,6.40
2022-08-17T07:52:51.800Z,6.80
2022-08-17T07:55:40.906Z,7.10
2022-08-17T07:58:26.939Z,6.70
2022-08-17T08:01:18.827Z,5.60
2022-08-17T08:03:53.068Z,5.60
2022-08-17T08:06:27.695Z,5.70
2022-08-17T08:09:01.470Z,5.10
2022-08-17T08:11:44.243Z,5.20
2022-08-17T08:14:40.596Z,5.30
2022-08-17T08:17:14.110Z,5.90
2022-08-17T08:19:47.438Z,6.00
2022-08-17T08:22:31.800Z,6.70
2022-08-17T08:25:15.265Z,6.80
2022-08-17T08:28:12.771Z,6.40
2022-08-17T08:30:53.279Z,6.00
2022-08-17T08:33:57.207Z,5.80
2022-08-17T08:37:02.076Z,5.90
2022-08-17T08:39:54.217Z,5.90
2022-08-17T08:42:44.535Z,6.40
2022-08-17T08:45:25.443Z,6.50
2022-08-17T08:48:06.306Z,5.80
2022-08-17T08:51:13.485Z,6.70
2022-08-17T08:53:46.569Z,5.90
2022-08-17T08:57:19.506Z,6.30
2022-08-17T08:59:58.280Z,6.70
2022-08-17T09:03:03.384Z,6.70
2022-08-17T09:05:45.084Z,6.90
2022-08-17T09:08:35.976Z,7.10
2022-08-17T09:11:28.923Z,6.00
2022-08-17T09:14:28.294Z,7.40
2022-08-17T09:17:42.114Z,6.90
2022-08-17T09:23:37.869Z,7.20
2022-08-17T09:26:23.795Z,6.80
2022-08-17T09:29:01.881Z,7.00
2022-08-17T09:31:49.032Z,7.20
2022-08-17T09:34:34.518Z,7.50
2022-08-17T09:37:26.498Z,7.00
2022-08-17T09:40:42.014Z,7.30
2022-08-17T09:43:48.521Z,7.00
2022-08-17T09:46:27.931Z,7.70
2022-08-17T09:49:11.147Z,7.60
2022-08-17T09:51:56.426Z,7.60
2022-08-17T09:54:41.519Z,7.10
2022-08-17T09:57:32.675Z,6.90
2022-08-17T10:00:20.498Z,6.20
2022-08-17T10:03:03.427Z,5.50
2022-08-17T10:05:47.033Z,7.20
2022-08-17T10:08:54.822Z,6.10
2022-08-17T10:12:10.617Z,6.20
2022-08-17T10:14:53.486Z,6.70
2022-08-17T10:17:40.984Z,6.60
2022-08-17T10:20:39.151Z,6.70
2022-08-17T10:23:43.065Z,6.10
2022-08-17T10:26:25.611Z,6.30
2022-08-17T10:29:13.006Z,6.70
2022-08-17T10:31:56.033Z,6.80
2022-08-17T10:34:49.440Z,5.60
2022-08-17T10:37:59.632Z,6.40
2022-08-17T10:41:00.290Z,6.30
2022-08-17T10:44:38.282Z,6.90
2022-08-17T10:47:20.605Z,6.80
2022-08-17T10:49:56.756Z,7.20
2022-08-17T10:52:50.930Z,7.20
2022-08-17T10:55:26.482Z,6.70
2022-08-17T10:58:22.293Z,6.20
2022-08-17T11:00:58.929Z,7.10
2022-08-17T11:03:33.238Z,6.90
2022-08-17T11:06:25.543Z,7.10
2022-08-17T11:09:10.450Z,6.60
2022-08-17T11:12:12.506Z,6.60
2022-08-17T11:15:26.365Z,6.40
2022-08-17T11:18:16.000Z,6.00
2022-08-17T11:21:08.089Z,6.10
2022-08-17T11:24:12.149Z,6.70
2022-08-17T11:27:05.530Z,6.60
2022-08-17T11:30:08.211Z,6.20
2022-08-17T11:32:54.532Z,6.60
2022-08-17T11:35:41.021Z,7.70
2022-08-17T11:38:29.763Z,6.80
2022-08-17T11:41:14.224Z,6.80
2022-08-17T11:44:02.188Z,6.90
2022-08-17T11:47:29.676Z,6.60
2022-08-17T11:50:44.169Z,6.90
2022-08-17T11:53:49.092Z,7.50
2022-08-17T11:56:49.823Z,7.10
2022-08-17T11:59:34.860Z,7.40
2022-08-17T12:02:35.781Z,7.30
2022-08-17T12:05:26.139Z,7.10
2022-08-17T12:08:15.566Z,7.20
2022-08-17T12:11:08.731Z,7.00
2022-08-17T12:14:01.881Z,8.00
2022-08-17T12:16:36.318Z,7.80
2022-08-17T12:19:19.868Z,7.80
2022-08-17T12:22:45.334Z,8.20
2022-08-17T12:25:24.567Z,9.00
2022-08-17T12:28:06.184Z,8.50
2022-08-17T12:30:41.107Z,8.10
2022-08-17T12:33:25.405Z,9.60
2022-08-17T12:36:07.189Z,8.50
2022-08-17T12:38:42.394Z,7.90
2022-08-17T12:41:30.048Z,11.00
2022-08-17T12:44:06.235Z,10.30
2022-08-17T12:46:50.601Z,9.20
2022-08-17T12:49:31.104Z,9.00
2022-08-17T12:52:16.276Z,8.60
2022-08-17T12:55:07.046Z,8.00
2022-08-17T12:57:43.024Z,7.60
2022-08-17T13:00:22.676Z,7.70
2022-08-17T13:03:01.903Z,6.00
2022-08-17T13:05:56.842Z,6.70
2022-08-17T13:08:36.427Z,8.20
2022-08-17T13:11:22.816Z,8.20
2022-08-17T13:13:57.783Z,8.30
2022-08-17T13:16:34.365Z,7.90
2022-08-17T13:19:29.775Z,7.60
2022-08-17T13:22:15.719Z,8.40
2022-08-17T13:25:01.334Z,7.90
2022-08-17T13:27:35.116Z,7.80
2022-08-17T13:30:15.150Z,8.10
2022-08-17T13:32:49.180Z,8.70
2022-08-17T13:35:41.158Z,8.00
2022-08-17T13:40:53.815Z,8.40
2022-08-17T13:43:49.201Z,8.30
2022-08-17T13:46:24.810Z,8.80
2022-08-17T13:49:11.002Z,8.70
2022-08-17T13:51:49.625Z,9.60
2022-08-17T13:54:27.120Z,8.90
2022-08-17T13:57:29.087Z,9.20
2022-08-17T14:02:54.610Z,10.10
2022-08-17T14:05:27.779Z,10.20
2022-08-17T14:08:06.740Z,11.40
2022-08-17T14:10:41.144Z,11.00
2022-08-17T14:13:15.763Z,10.60
2022-08-17T14:15:55.245Z,11.30
2022-08-17T14:18:55.298Z,11.30
2022-08-17T14:21:24.679Z,11.70
2022-08-17T14:24:00.045Z,11.90
2022-08-17T14:26:33.730Z,11.70
2022-08-17T14:29:14.896Z,10.40
2022-08-17T14:31:54.300Z,11.10
2022-08-17T14:34:29.208Z,11.20
2022-08-17T14:37:02.450Z,11.40
2022-08-17T14:39:35.635Z,11.40
2022-08-17T14:42:09.845Z,11.60
2022-08-17T14:44:43.151Z,12.00
2022-08-17T14:47:16.288Z,11.80
2022-08-17T14:49:50.310Z,12.50
2022-08-17T14:52:23.875Z,11.20
2022-08-17T14:54:57.794Z,9.70
2022-08-17T14:57:33.570Z,8.50
2022-08-17T15:00:08.845Z,8.50
2022-08-17T15:02:55.322Z,8.20
2022-08-17T15:05:33.885Z,8.40
2022-08-17T15:08:08.212Z,8.20
2022-08-17T15:10:41.704Z,8.80
2022-08-17T15:13:23.852Z,8.00
2022-08-17T15:15:57.006Z,8.60
2022-08-17T15:18:30.097Z,8.40
2022-08-17T15:21:05.641Z,8.30
2022-08-17T15:23:40.167Z,9.00
2022-08-17T15:26:15.567Z,8.60
2022-08-17T15:28:54.403Z,8.70
2022-08-17T15:31:31.883Z,9.30
2022-08-17T15:34:08.022Z,8.40
2022-08-17T15:36:49.180Z,8.00
2022-08-17T15:39:23.292Z,8.80
2022-08-17T15:41:58.118Z,8.50
2022-08-17T15:44:32.744Z,8.80
2022-08-17T15:47:08.258Z,8.30
2022-08-17T15:49:45.762Z,9.10
2022-08-17T15:52:20.533Z,8.60
2022-08-17T15:54:58.941Z,8.60
2022-08-17T15:57:31.585Z,7.80
2022-08-17T16:00:06.235Z,8.70
2022-08-17T16:03:31.993Z,9.30
2022-08-17T16:05:40.964Z,8.80
2022-08-17T16:08:20.008Z,9.00
2022-08-17T16:10:55.717Z,8.80
2022-08-17T16:13:29.026Z,9.10
2022-08-17T16:16:01.833Z,11.70
2022-08-17T16:18:34.448Z,14.00
2022-08-17T16:21:42.470Z,12.20
2022-08-17T16:24:15.938Z,11.20
2022-08-17T16:26:48.815Z,11.10
2022-08-17T16:29:21.815Z,10.00
2022-08-17T16:31:54.586Z,10.20
2022-08-17T16:34:27.539Z,11.20
2022-08-17T16:37:00.293Z,10.70
2022-08-17T16:39:34.612Z,10.40
2022-08-17T16:42:09.467Z,11.90
2022-08-17T16:44:42.306Z,11.30
2022-08-17T16:47:18.265Z,11.80
2022-08-17T16:49:51.785Z,13.10
2022-08-17T16:52:32.480Z,11.80
2022-08-17T16:55:09.082Z,12.30
2022-08-17T16:57:47.643Z,12.20
2022-08-17T17:00:24.990Z,13.00
2022-08-17T17:02:58.052Z,12.70
2022-08-17T17:05:33.241Z,11.90
2022-08-17T17:08:26.149Z,11.00
2022-08-17T17:11:08.935Z,12.00
2022-08-17T17:13:54.676Z,12.00
2022-08-17T17:16:41.310Z,10.90
2022-08-17T17:19:42.941Z,10.80
2022-08-17T17:22:56.108Z,10.80
2022-08-17T17:25:40.035Z,11.40
2022-08-17T17:28:32.162Z,11.80
2022-08-17T17:31:21.550Z,12.20
2022-08-17T17:34:04.378Z,11.60
2022-08-17T17:36:48.839Z,12.50
2022-08-17T17:39:49.402Z,12.50
2022-08-17T17:42:31.996Z,11.80
2022-08-17T17:45:07.244Z,12.10
2022-08-17T17:47:41.022Z,13.40
2022-08-17T17:50:14.585Z,13.80
2022-08-17T17:52:53.415Z,14.10
2022-08-17T17:55:44.824Z,13.70
2022-08-17T17:58:38.090Z,12.70
2022-08-17T18:01:42.466Z,11.70
2022-08-17T18:04:32.993Z,11.70
2022-08-17T18:07:23.309Z,11.80
2022-08-17T18:10:34.916Z,11.10
2022-08-17T18:13:40.874Z,9.50
2022-08-17T18:16:17.456Z,8.30
2022-08-17T18:18:52.600Z,8.00
2022-08-17T18:21:31.786Z,7.90
2022-08-17T18:24:06.852Z,8.60
2022-08-17T18:26:57.435Z,8.30
2022-08-17T18:29:38.403Z,7.90
2022-08-17T18:32:31.778Z,8.20
2022-08-17T18:35:12.027Z,7.00
2022-08-17T18:37:49.027Z,7.20
2022-08-17T18:40:21.548Z,6.60
2022-08-17T18:42:59.460Z,7.10
2022-08-17T18:45:36.274Z,7.00
2022-08-17T18:48:21.773Z,7.30
2022-08-17T18:50:56.389Z,6.90
2022-08-17T18:53:42.152Z,6.70
2022-08-17T18:56:36.449Z,6.50
2022-08-17T18:59:20.902Z,6.60
2022-08-17T19:02:27.351Z,6.70
2022-08-17T19:05:35.784Z,6.40
2022-08-17T19:08:21.936Z,6.70
2022-08-17T19:11:21.496Z,5.90
2022-08-17T19:14:03.014Z,6.80
2022-08-17T19:16:41.559Z,7.10
2022-08-17T19:19:28.292Z,6.80
2022-08-17T19:22:28.894Z,7.00
2022-08-17T19:25:19.169Z,7.10
2022-08-17T19:28:00.033Z,7.50
2022-08-17T19:30:33.341Z,7.80
2022-08-17T19:33:06.640Z,8.20
2022-08-17T19:35:51.990Z,8.30
2022-08-17T19:38:49.959Z,8.70
2022-08-17T19:41:28.738Z,8.20
2022-08-17T19:44:07.514Z,7.20
2022-08-17T19:47:00.893Z,7.60
2022-08-17T19:50:10.175Z,7.70
2022-08-17T19:53:07.898Z,8.40
2022-08-17T19:55:58.435Z,8.20
2022-08-17T19:58:57.570Z,8.60
2022-08-17T20:01:49.850Z,7.90
2022-08-17T20:04:32.920Z,8.40
2022-08-17T20:07:21.951Z,8.00
2022-08-17T20:10:04.452Z,8.10
2022-08-17T20:12:40.390Z,8.10
2022-08-17T20:15:30.574Z,7.70
2022-08-17T20:18:07.739Z,8.00
2022-08-17T20:21:03.091Z,8.20
2022-08-17T20:24:00.177Z,7.50
2022-08-17T20:26:42.921Z,8.30
2022-08-17T20:29:53.331Z,8.50
2022-08-17T20:32:32.093Z,8.10
2022-08-17T20:35:09.037Z,8.10
2022-08-17T20:37:44.791Z,8.00
2022-08-17T20:40:23.658Z,8.20
2022-08-17T20:42:57.547Z,8.00
2022-08-17T20:46:04.293Z,8.10
2022-08-17T20:48:47.561Z,7.50
2022-08-17T20:51:43.490Z,7.60
2022-08-17T20:54:54.340Z,7.70
2022-08-17T20:57:50.153Z,8.00
2022-08-17T21:00:31.958Z,8.40
2022-08-17T21:06:17.072Z,7.50
2022-08-17T21:08:59.469Z,8.10
2022-08-17T21:12:02.835Z,7.80
2022-08-17T21:14:58.688Z,8.30
2022-08-17T21:17:36.278Z,8.20
2022-08-17T21:20:39.223Z,8.20
2022-08-17T21:23:32.889Z,7.80
2022-08-17T21:26:18.015Z,7.90
2022-08-17T21:29:31.858Z,8.10
2022-08-17T21:34:35.434Z,8.20
2022-08-17T21:37:25.621Z,8.40
2022-08-17T21:40:39.797Z,8.10
2022-08-17T21:43:33.063Z,8.40
2022-08-17T21:46:28.976Z,8.00
2022-08-17T21:49:13.334Z,7.30
2022-08-17T21:51:55.167Z,8.20
2022-08-17T21:54:40.953Z,8.50
2022-08-17T21:57:28.017Z,8.70
2022-08-17T22:00:03.654Z,8.90
2022-08-17T22:02:40.017Z,9.00
2022-08-17T22:05:17.168Z,9.10
2022-08-17T22:07:52.228Z,9.60
2022-08-17T22:10:34.004Z,8.70
2022-08-17T22:13:29.845Z,9.40
2022-08-17T22:16:28.922Z,9.40
2022-08-17T22:19:07.030Z,9.10
2022-08-17T22:21:40.210Z,9.00
2022-08-17T22:24:25.589Z,9.00
2022-08-17T22:27:13.467Z,9.30
2022-08-17T22:30:01.068Z,8.70
2022-08-17T22:32:38.269Z,8.90
2022-08-17T22:35:37.857Z,9.00
2022-08-17T22:38:22.080Z,8.60
2022-08-17T22:41:15.870Z,9.90
2022-08-17T22:43:48.874Z,8.60
2022-08-17T22:46:27.464Z,8.90
2022-08-17T22:49:02.085Z,9.50
2022-08-17T22:51:35.497Z,9.20
2022-08-17T22:54:50.533Z,9.20
2022-08-17T22:57:44.048Z,9.00
2022-08-17T23:00:43.813Z,9.60
2022-08-17T23:03:24.359Z,9.60
2022-08-17T23:06:10.197Z,9.10
2022-08-17T23:08:55.812Z,9.40
2022-08-17T23:11:36.911Z,9.40
2022-08-17T23:14:24.912Z,8.70
2022-08-17T23:16:57.597Z,9.30
2022-08-17T23:19:33.057Z,9.30
2022-08-17T23:22:08.102Z,9.50
2022-08-17T23:24:51.379Z,9.60
2022-08-17T23:27:25.034Z,9.70
2022-08-17T23:29:58.821Z,10.10
2022-08-17T23:32:32.167Z,10.10
2022-08-17T23:35:05.831Z,9.90
2022-08-17T23:37:41.065Z,10.50
2022-08-17T23:40:14.546Z,10.90
2022-08-17T23:42:47.867Z,10.30
2022-08-17T23:45:22.414Z,10.80
2022-08-17T23:47:55.859Z,10.20
2022-08-17T23:50:31.009Z,10.60
2022-08-17T23:53:08.226Z,10.80
2022-08-17T23:55:41.441Z,10.80
2022-08-17T23:58:14.521Z,10.40
